SFJ01 LFTH-EGJJ
Flight info
| Callsign | SFJ01 |
|---|---|
| Flight time | 1h 28m |
| Altitude | 38000 |
| Route | JULEE DCT OB UL127 PADKO UY342 BULTO Y341 SALIN Y25 FJR DCT MAKOX DCT TUPAR UM184 USODA UM616 NTS UY110 REN UN862 UPALO DCT MINQI |
| Aircraft | A320/M-SDE3FGHIRWY/LB1 |
Departure
| Time | 2026-04-16 06:43 |
|---|---|
| Airport | Toulon-Hyères Airport (LFTH) |
Arrival
| Time | 2026-04-16 08:11 |
|---|---|
| Airport | Jersey Airport (EGJJ) |
| Time | Latitude | Longitude | Altitude | Speed | Heading |
|---|---|---|---|---|---|
| 2026-04-16 06:17 | 43.09258 | 6.15737 | 15 ft | 0 kts | 160° |
| 2026-04-16 06:35 | 43.09280 | 6.15724 | 16 ft | 4 kts | 144° |
| 2026-04-16 06:35 | 43.09298 | 6.15699 | 13 ft | 4 kts | 116° |
| 2026-04-16 06:35 | 43.09307 | 6.15664 | 14 ft | 4 kts | 108° |
| 2026-04-16 06:36 | 43.09309 | 6.15644 | 13 ft | 4 kts | 194° |
| 2026-04-16 06:36 | 43.09313 | 6.15646 | 13 ft | 0 kts | 208° |
| 2026-04-16 06:38 | 43.09311 | 6.15644 | 13 ft | 1 kts | 208° |
| 2026-04-16 06:38 | 43.09301 | 6.15637 | -4 ft | 6 kts | 209° |
| 2026-04-16 06:38 | 43.09247 | 6.15575 | 14 ft | 11 kts | 225° |
| 2026-04-16 06:38 | 43.09208 | 6.15521 | 13 ft | 15 kts | 226° |
| 2026-04-16 06:39 | 43.09167 | 6.15385 | 11 ft | 13 kts | 307° |
| 2026-04-16 06:39 | 43.09217 | 6.15315 | 11 ft | 17 kts | 315° |
| 2026-04-16 06:39 | 43.09339 | 6.15149 | 12 ft | 21 kts | 314° |
| 2026-04-16 06:39 | 43.09450 | 6.14992 | 12 ft | 25 kts | 314° |
| 2026-04-16 06:40 | 43.09559 | 6.14848 | 10 ft | 15 kts | 314° |
| 2026-04-16 06:40 | 43.09560 | 6.14749 | 11 ft | 10 kts | 236° |
| 2026-04-16 06:40 | 43.09523 | 6.14681 | 13 ft | 8 kts | 231° |
| 2026-04-16 06:40 | 43.09499 | 6.14640 | 13 ft | 9 kts | 231° |
| 2026-04-16 06:41 | 43.09453 | 6.14561 | 13 ft | 12 kts | 233° |
| 2026-04-16 06:41 | 43.09433 | 6.14455 | 13 ft | 12 kts | 275° |
| 2026-04-16 06:41 | 43.09448 | 6.14313 | 15 ft | 11 kts | 297° |
| 2026-04-16 06:41 | 43.09511 | 6.14251 | 12 ft | 11 kts | 352° |
| 2026-04-16 06:42 | 43.09539 | 6.14276 | 13 ft | 0 kts | 53° |
| 2026-04-16 06:42 | 43.09695 | 6.14545 | 9 ft | 84 kts | 51° |
| 2026-04-16 06:42 | 43.10227 | 6.15446 | 86 ft | 149 kts | 51° |
| 2026-04-16 06:43 | 43.10898 | 6.16639 | 771 ft | 166 kts | 57° |
| 2026-04-16 06:43 | 43.11416 | 6.18064 | 1703 ft | 173 kts | 70° |
| 2026-04-16 06:43 | 43.11871 | 6.19712 | 2387 ft | 197 kts | 80° |
| 2026-04-16 06:43 | 43.11671 | 6.21612 | 3080 ft | 218 kts | 122° |
| 2026-04-16 06:44 | 43.10466 | 6.22988 | 3758 ft | 245 kts | 160° |
| 2026-04-16 06:44 | 43.08741 | 6.23045 | 4625 ft | 264 kts | 197° |
| 2026-04-16 06:44 | 43.07157 | 6.21726 | 5691 ft | 273 kts | 222° |
| 2026-04-16 06:44 | 43.05832 | 6.19840 | 6877 ft | 277 kts | 230° |
| 2026-04-16 06:45 | 43.04582 | 6.17797 | 7991 ft | 282 kts | 235° |
| 2026-04-16 06:45 | 43.03656 | 6.15422 | 9069 ft | 287 kts | 250° |
| 2026-04-16 06:45 | 43.03093 | 6.12795 | 10162 ft | 290 kts | 264° |
| 2026-04-16 06:45 | 43.03165 | 6.09981 | 10787 ft | 308 kts | 286° |
| 2026-04-16 06:46 | 43.03785 | 6.07062 | 11253 ft | 331 kts | 289° |
| 2026-04-16 06:46 | 43.04483 | 6.04002 | 12027 ft | 342 kts | 290° |
| 2026-04-16 06:46 | 43.05204 | 6.00875 | 12962 ft | 347 kts | 290° |
| 2026-04-16 06:46 | 43.05923 | 5.97742 | 13902 ft | 353 kts | 290° |
| 2026-04-16 06:47 | 43.06656 | 5.94515 | 14729 ft | 357 kts | 290° |
| 2026-04-16 06:47 | 43.07390 | 5.91252 | 15580 ft | 361 kts | 290° |
| 2026-04-16 06:47 | 43.08127 | 5.87946 | 16428 ft | 365 kts | 289° |
| 2026-04-16 06:47 | 43.08870 | 5.84606 | 17279 ft | 369 kts | 289° |
| 2026-04-16 06:48 | 43.09617 | 5.81228 | 18121 ft | 373 kts | 289° |
| 2026-04-16 06:48 | 43.10372 | 5.77809 | 18877 ft | 377 kts | 289° |
| 2026-04-16 06:48 | 43.11138 | 5.74350 | 19594 ft | 381 kts | 289° |
| 2026-04-16 06:48 | 43.11899 | 5.70908 | 20297 ft | 385 kts | 289° |
| 2026-04-16 06:49 | 43.12680 | 5.67382 | 21039 ft | 389 kts | 289° |
| 2026-04-16 06:49 | 43.13468 | 5.63820 | 21743 ft | 393 kts | 289° |
| 2026-04-16 06:49 | 43.14265 | 5.60219 | 22453 ft | 397 kts | 289° |
| 2026-04-16 06:49 | 43.15069 | 5.56581 | 23126 ft | 401 kts | 289° |
| 2026-04-16 06:50 | 43.15878 | 5.52905 | 23759 ft | 405 kts | 289° |
| 2026-04-16 06:50 | 43.16695 | 5.49190 | 24295 ft | 409 kts | 289° |
| 2026-04-16 06:50 | 43.17517 | 5.45439 | 24837 ft | 412 kts | 289° |
| 2026-04-16 06:50 | 43.18342 | 5.41667 | 25361 ft | 415 kts | 289° |
| 2026-04-16 06:51 | 43.19162 | 5.37919 | 25859 ft | 418 kts | 289° |
| 2026-04-16 06:51 | 43.19998 | 5.34089 | 26359 ft | 421 kts | 289° |
| 2026-04-16 06:51 | 43.20838 | 5.30237 | 26880 ft | 423 kts | 289° |
| 2026-04-16 06:51 | 43.21681 | 5.26355 | 27368 ft | 426 kts | 288° |
| 2026-04-16 06:52 | 43.22521 | 5.22461 | 27891 ft | 427 kts | 288° |
| 2026-04-16 06:52 | 43.23364 | 5.18551 | 28346 ft | 430 kts | 288° |
| 2026-04-16 06:52 | 43.24213 | 5.14608 | 28841 ft | 431 kts | 289° |
| 2026-04-16 06:52 | 43.25052 | 5.10710 | 29307 ft | 433 kts | 288° |
| 2026-04-16 06:53 | 43.25906 | 5.06733 | 29662 ft | 437 kts | 288° |
| 2026-04-16 06:53 | 43.26765 | 5.02724 | 30080 ft | 439 kts | 288° |
| 2026-04-16 06:53 | 43.27631 | 4.98683 | 30361 ft | 443 kts | 288° |
| 2026-04-16 06:53 | 43.28500 | 4.94621 | 30703 ft | 445 kts | 288° |
| 2026-04-16 06:54 | 43.29370 | 4.90548 | 31053 ft | 445 kts | 287° |
| 2026-04-16 06:54 | 43.30241 | 4.86471 | 31332 ft | 446 kts | 287° |
| 2026-04-16 06:54 | 43.31110 | 4.82391 | 31727 ft | 444 kts | 288° |
| 2026-04-16 06:54 | 43.31971 | 4.78336 | 32149 ft | 442 kts | 287° |
| 2026-04-16 06:55 | 43.32817 | 4.74337 | 32484 ft | 441 kts | 287° |
| 2026-04-16 06:55 | 43.33670 | 4.70298 | 32898 ft | 440 kts | 287° |
| 2026-04-16 06:55 | 43.34522 | 4.66253 | 33240 ft | 441 kts | 287° |
| 2026-04-16 06:55 | 43.35374 | 4.62213 | 33640 ft | 439 kts | 287° |
| 2026-04-16 06:56 | 43.36221 | 4.58189 | 34055 ft | 438 kts | 286° |
| 2026-04-16 06:56 | 43.37066 | 4.54167 | 34416 ft | 438 kts | 287° |
| 2026-04-16 06:56 | 43.37907 | 4.50151 | 34755 ft | 437 kts | 287° |
| 2026-04-16 06:56 | 43.38965 | 4.46248 | 35103 ft | 435 kts | 296° |
| 2026-04-16 06:57 | 43.40369 | 4.42567 | 35442 ft | 434 kts | 299° |
| 2026-04-16 06:57 | 43.41786 | 4.38951 | 35790 ft | 433 kts | 299° |
| 2026-04-16 06:57 | 43.43155 | 4.35445 | 36112 ft | 432 kts | 299° |
| 2026-04-16 06:57 | 43.44573 | 4.31799 | 36446 ft | 431 kts | 299° |
| 2026-04-16 06:58 | 43.45984 | 4.28168 | 36775 ft | 430 kts | 299° |
| 2026-04-16 06:58 | 43.47393 | 4.24539 | 37112 ft | 429 kts | 299° |
| 2026-04-16 06:58 | 43.48797 | 4.20913 | 37433 ft | 428 kts | 299° |
| 2026-04-16 06:58 | 43.50194 | 4.17302 | 37755 ft | 427 kts | 300° |
| 2026-04-16 06:59 | 43.51585 | 4.13699 | 38099 ft | 425 kts | 300° |
| 2026-04-16 06:59 | 43.52971 | 4.10106 | 38193 ft | 425 kts | 300° |
| 2026-04-16 06:59 | 43.55714 | 4.02994 | 38195 ft | 423 kts | 300° |
| 2026-04-16 07:00 | 43.58785 | 3.96121 | 38195 ft | 421 kts | 311° |
| 2026-04-16 07:01 | 43.64744 | 3.87220 | 38201 ft | 421 kts | 314° |
| 2026-04-16 07:01 | 43.68719 | 3.81287 | 38204 ft | 421 kts | 313° |
| 2026-04-16 07:02 | 43.72673 | 3.75350 | 38203 ft | 420 kts | 314° |
| 2026-04-16 07:02 | 43.76621 | 3.69410 | 38203 ft | 419 kts | 314° |
| 2026-04-16 07:03 | 43.80530 | 3.63537 | 38204 ft | 416 kts | 314° |
| 2026-04-16 07:03 | 43.84447 | 3.57645 | 38206 ft | 415 kts | 314° |
| 2026-04-16 07:04 | 43.88360 | 3.51752 | 38210 ft | 415 kts | 314° |
| 2026-04-16 07:04 | 43.92255 | 3.45861 | 38220 ft | 415 kts | 314° |
| 2026-04-16 07:05 | 43.96154 | 3.39943 | 38226 ft | 415 kts | 313° |
| 2026-04-16 07:05 | 44.00044 | 3.34025 | 38235 ft | 415 kts | 313° |
| 2026-04-16 07:06 | 44.03921 | 3.28123 | 38239 ft | 415 kts | 313° |
| 2026-04-16 07:06 | 44.07792 | 3.22224 | 38241 ft | 415 kts | 313° |
| 2026-04-16 07:07 | 44.11677 | 3.16282 | 38246 ft | 415 kts | 313° |
| 2026-04-16 07:07 | 44.15562 | 3.10330 | 38251 ft | 415 kts | 313° |
| 2026-04-16 07:08 | 44.19422 | 3.04414 | 38250 ft | 415 kts | 313° |
| 2026-04-16 07:08 | 44.23295 | 2.98469 | 38252 ft | 414 kts | 313° |
| 2026-04-16 07:09 | 44.27152 | 2.92524 | 38256 ft | 413 kts | 313° |
| 2026-04-16 07:09 | 44.31007 | 2.86564 | 38260 ft | 414 kts | 313° |
| 2026-04-16 07:10 | 44.34861 | 2.80598 | 38266 ft | 414 kts | 313° |
| 2026-04-16 07:10 | 44.38687 | 2.74665 | 38272 ft | 413 kts | 313° |
| 2026-04-16 07:11 | 44.42528 | 2.68694 | 38272 ft | 412 kts | 313° |
| 2026-04-16 07:11 | 44.46364 | 2.62722 | 38274 ft | 413 kts | 313° |
| 2026-04-16 07:12 | 44.50193 | 2.56745 | 38273 ft | 413 kts | 313° |
| 2026-04-16 07:12 | 44.53999 | 2.50794 | 38273 ft | 413 kts | 313° |
| 2026-04-16 07:13 | 44.57826 | 2.44794 | 38270 ft | 413 kts | 313° |
| 2026-04-16 07:13 | 44.61649 | 2.38784 | 38267 ft | 412 kts | 313° |
| 2026-04-16 07:14 | 44.65470 | 2.32775 | 38268 ft | 412 kts | 313° |
| 2026-04-16 07:14 | 44.69259 | 2.26795 | 38271 ft | 413 kts | 312° |
| 2026-04-16 07:15 | 44.73074 | 2.20756 | 38272 ft | 413 kts | 312° |
| 2026-04-16 07:15 | 44.76886 | 2.14715 | 38268 ft | 413 kts | 312° |
| 2026-04-16 07:16 | 44.80699 | 2.08665 | 38267 ft | 413 kts | 312° |
| 2026-04-16 07:16 | 44.84487 | 2.02647 | 38267 ft | 413 kts | 312° |
| 2026-04-16 07:17 | 44.88294 | 1.96574 | 38263 ft | 413 kts | 312° |
| 2026-04-16 07:17 | 44.92097 | 1.90487 | 38251 ft | 414 kts | 311° |
| 2026-04-16 07:18 | 44.95904 | 1.84379 | 38261 ft | 415 kts | 311° |
| 2026-04-16 07:18 | 44.99714 | 1.78260 | 38264 ft | 415 kts | 311° |
| 2026-04-16 07:19 | 45.03498 | 1.72194 | 38272 ft | 414 kts | 311° |
| 2026-04-16 07:19 | 45.07303 | 1.66073 | 38274 ft | 414 kts | 311° |
| 2026-04-16 07:20 | 45.11100 | 1.59932 | 38276 ft | 415 kts | 311° |
| 2026-04-16 07:20 | 45.14894 | 1.53777 | 38273 ft | 415 kts | 311° |
| 2026-04-16 07:21 | 45.18660 | 1.47663 | 38287 ft | 414 kts | 311° |
| 2026-04-16 07:21 | 45.22432 | 1.41526 | 38274 ft | 413 kts | 311° |
| 2026-04-16 07:22 | 45.26201 | 1.35384 | 38271 ft | 413 kts | 311° |
| 2026-04-16 07:22 | 45.29968 | 1.29234 | 38269 ft | 413 kts | 311° |
| 2026-04-16 07:23 | 45.33704 | 1.23115 | 38269 ft | 412 kts | 310° |
| 2026-04-16 07:23 | 45.37428 | 1.16906 | 38268 ft | 413 kts | 310° |
| 2026-04-16 07:24 | 45.41120 | 1.10662 | 38270 ft | 412 kts | 309° |
| 2026-04-16 07:24 | 45.44811 | 1.04424 | 38267 ft | 412 kts | 309° |
| 2026-04-16 07:25 | 45.48504 | 0.98185 | 38270 ft | 412 kts | 309° |
| 2026-04-16 07:25 | 45.52166 | 0.91981 | 38272 ft | 412 kts | 309° |
| 2026-04-16 07:26 | 45.55854 | 0.85724 | 38273 ft | 412 kts | 309° |
| 2026-04-16 07:26 | 45.59533 | 0.79462 | 38270 ft | 411 kts | 309° |
| 2026-04-16 07:27 | 45.63210 | 0.73201 | 38268 ft | 411 kts | 309° |
| 2026-04-16 07:27 | 45.66865 | 0.66972 | 38269 ft | 412 kts | 309° |
| 2026-04-16 07:28 | 45.70534 | 0.60696 | 38281 ft | 412 kts | 309° |
| 2026-04-16 07:28 | 45.74198 | 0.54401 | 38286 ft | 412 kts | 309° |
| 2026-04-16 07:29 | 45.77857 | 0.48096 | 38298 ft | 411 kts | 309° |
| 2026-04-16 07:29 | 45.81486 | 0.41840 | 38294 ft | 411 kts | 309° |
| 2026-04-16 07:30 | 45.85134 | 0.35533 | 38293 ft | 411 kts | 308° |
| 2026-04-16 07:30 | 45.88786 | 0.29206 | 38295 ft | 412 kts | 308° |
| 2026-04-16 07:31 | 45.92437 | 0.22869 | 38292 ft | 412 kts | 308° |
| 2026-04-16 07:31 | 45.96061 | 0.16565 | 38290 ft | 412 kts | 308° |
| 2026-04-16 07:32 | 45.99702 | 0.10223 | 38291 ft | 411 kts | 308° |
| 2026-04-16 07:32 | 46.03332 | 0.03869 | 38289 ft | 411 kts | 308° |
| 2026-04-16 07:33 | 46.06962 | -0.02495 | 38288 ft | 411 kts | 308° |
| 2026-04-16 07:33 | 46.10563 | -0.08817 | 38290 ft | 411 kts | 308° |
| 2026-04-16 07:34 | 46.14182 | -0.15189 | 38290 ft | 411 kts | 308° |
| 2026-04-16 07:34 | 46.17801 | -0.21565 | 38297 ft | 410 kts | 308° |
| 2026-04-16 07:35 | 46.21400 | -0.27930 | 38290 ft | 409 kts | 307° |
| 2026-04-16 07:35 | 46.24996 | -0.34294 | 38288 ft | 409 kts | 308° |
| 2026-04-16 07:36 | 46.28568 | -0.40616 | 38288 ft | 409 kts | 307° |
| 2026-04-16 07:36 | 46.32152 | -0.46999 | 38288 ft | 409 kts | 307° |
| 2026-04-16 07:37 | 46.35726 | -0.53385 | 38285 ft | 409 kts | 307° |
| 2026-04-16 07:37 | 46.39301 | -0.59782 | 38284 ft | 408 kts | 307° |
| 2026-04-16 07:38 | 46.42878 | -0.66085 | 38280 ft | 408 kts | 311° |
| 2026-04-16 07:38 | 46.47103 | -0.71619 | 38283 ft | 410 kts | 316° |
| 2026-04-16 07:39 | 46.51370 | -0.77107 | 38280 ft | 410 kts | 316° |
| 2026-04-16 07:39 | 46.55628 | -0.82613 | 38283 ft | 410 kts | 315° |
| 2026-04-16 07:40 | 46.59884 | -0.88122 | 38280 ft | 410 kts | 315° |
| 2026-04-16 07:40 | 46.64126 | -0.93566 | 38282 ft | 409 kts | 315° |
| 2026-04-16 07:41 | 46.68395 | -0.99045 | 38279 ft | 409 kts | 315° |
| 2026-04-16 07:41 | 46.72659 | -1.04544 | 38277 ft | 409 kts | 315° |
| 2026-04-16 07:42 | 46.76915 | -1.10061 | 38275 ft | 409 kts | 315° |
| 2026-04-16 07:42 | 46.81139 | -1.15544 | 38275 ft | 409 kts | 315° |
| 2026-04-16 07:43 | 46.85394 | -1.21069 | 38274 ft | 409 kts | 315° |
| 2026-04-16 07:43 | 46.89645 | -1.26611 | 38277 ft | 410 kts | 315° |
| 2026-04-16 07:44 | 46.93876 | -1.32145 | 38272 ft | 411 kts | 315° |
| 2026-04-16 07:44 | 46.98138 | -1.37723 | 38274 ft | 411 kts | 315° |
| 2026-04-16 07:45 | 47.02402 | -1.43289 | 38274 ft | 411 kts | 315° |
| 2026-04-16 07:45 | 47.06662 | -1.48868 | 38271 ft | 410 kts | 314° |
| 2026-04-16 07:46 | 47.10883 | -1.54425 | 38273 ft | 410 kts | 314° |
| 2026-04-16 07:46 | 47.15548 | -1.59302 | 38276 ft | 418 kts | 328° |
| 2026-04-16 07:47 | 47.21115 | -1.62003 | 38274 ft | 430 kts | 347° |
| 2026-04-16 07:47 | 47.27103 | -1.62865 | 38281 ft | 433 kts | 349° |
| 2026-04-16 07:48 | 47.33112 | -1.63607 | 38272 ft | 433 kts | 349° |
| 2026-04-16 07:48 | 47.36069 | -1.63980 | 38025 ft | 431 kts | 349° |
| 2026-04-16 07:48 | 47.39053 | -1.64379 | 37169 ft | 431 kts | 349° |
| 2026-04-16 07:48 | 47.42047 | -1.64804 | 36237 ft | 432 kts | 348° |
| 2026-04-16 07:49 | 47.45039 | -1.65244 | 35322 ft | 434 kts | 348° |
| 2026-04-16 07:49 | 47.48048 | -1.65686 | 34396 ft | 435 kts | 349° |
| 2026-04-16 07:49 | 47.51067 | -1.66129 | 33323 ft | 437 kts | 349° |
| 2026-04-16 07:49 | 47.54104 | -1.66574 | 32195 ft | 439 kts | 349° |
| 2026-04-16 07:50 | 47.57155 | -1.67015 | 31022 ft | 442 kts | 349° |
| 2026-04-16 07:50 | 47.60233 | -1.67452 | 29751 ft | 446 kts | 349° |
| 2026-04-16 07:50 | 47.63269 | -1.67879 | 28756 ft | 442 kts | 349° |
| 2026-04-16 07:50 | 47.66312 | -1.68303 | 27849 ft | 436 kts | 349° |
| 2026-04-16 07:51 | 47.69309 | -1.68720 | 26990 ft | 431 kts | 349° |
| 2026-04-16 07:51 | 47.72285 | -1.69138 | 26156 ft | 426 kts | 349° |
| 2026-04-16 07:51 | 47.75219 | -1.69557 | 25361 ft | 421 kts | 349° |
| 2026-04-16 07:51 | 47.78124 | -1.69979 | 24588 ft | 417 kts | 349° |
| 2026-04-16 07:52 | 47.80994 | -1.70399 | 23851 ft | 413 kts | 349° |
| 2026-04-16 07:52 | 47.83843 | -1.70816 | 22994 ft | 409 kts | 349° |
| 2026-04-16 07:52 | 47.86659 | -1.71228 | 22213 ft | 406 kts | 349° |
| 2026-04-16 07:52 | 47.89422 | -1.71628 | 21477 ft | 402 kts | 349° |
| 2026-04-16 07:53 | 47.92187 | -1.72025 | 20778 ft | 398 kts | 349° |
| 2026-04-16 07:53 | 47.94934 | -1.72422 | 20094 ft | 395 kts | 349° |
| 2026-04-16 07:53 | 47.97658 | -1.72818 | 19445 ft | 392 kts | 349° |
| 2026-04-16 07:53 | 48.00360 | -1.73209 | 18820 ft | 389 kts | 349° |
| 2026-04-16 07:54 | 48.03047 | -1.73603 | 18140 ft | 386 kts | 349° |
| 2026-04-16 07:54 | 48.05688 | -1.74086 | 17433 ft | 380 kts | 345° |
| 2026-04-16 07:54 | 48.08271 | -1.74835 | 16760 ft | 376 kts | 344° |
| 2026-04-16 07:54 | 48.10825 | -1.75629 | 16089 ft | 373 kts | 343° |
| 2026-04-16 07:55 | 48.13326 | -1.76435 | 15533 ft | 375 kts | 343° |
| 2026-04-16 07:55 | 48.16003 | -1.77318 | 15081 ft | 407 kts | 343° |
| 2026-04-16 07:55 | 48.18794 | -1.78236 | 14645 ft | 414 kts | 344° |
| 2026-04-16 07:55 | 48.21612 | -1.79151 | 14230 ft | 414 kts | 344° |
| 2026-04-16 07:56 | 48.24423 | -1.80051 | 13729 ft | 412 kts | 344° |
| 2026-04-16 07:56 | 48.27220 | -1.80940 | 13201 ft | 410 kts | 344° |
| 2026-04-16 07:56 | 48.30001 | -1.81820 | 12718 ft | 407 kts | 344° |
| 2026-04-16 07:56 | 48.32768 | -1.82699 | 12256 ft | 405 kts | 344° |
| 2026-04-16 07:57 | 48.35520 | -1.83581 | 11798 ft | 403 kts | 344° |
| 2026-04-16 07:57 | 48.38221 | -1.84450 | 11357 ft | 401 kts | 344° |
| 2026-04-16 07:57 | 48.40945 | -1.85330 | 10915 ft | 399 kts | 344° |
| 2026-04-16 07:57 | 48.43655 | -1.86208 | 10494 ft | 397 kts | 344° |
| 2026-04-16 07:58 | 48.46300 | -1.87057 | 10056 ft | 380 kts | 344° |
| 2026-04-16 07:58 | 48.48829 | -1.87865 | 9628 ft | 362 kts | 344° |
| 2026-04-16 07:58 | 48.51230 | -1.88635 | 9365 ft | 344 kts | 344° |
| 2026-04-16 07:58 | 48.53512 | -1.89371 | 9087 ft | 327 kts | 344° |
| 2026-04-16 07:59 | 48.55686 | -1.90073 | 8826 ft | 314 kts | 344° |
| 2026-04-16 07:59 | 48.57778 | -1.90749 | 8569 ft | 302 kts | 344° |
| 2026-04-16 07:59 | 48.59768 | -1.91394 | 8316 ft | 291 kts | 343° |
| 2026-04-16 07:59 | 48.61718 | -1.92030 | 8059 ft | 283 kts | 343° |
| 2026-04-16 08:00 | 48.63631 | -1.92660 | 7808 ft | 280 kts | 343° |
| 2026-04-16 08:00 | 48.65529 | -1.93286 | 7559 ft | 279 kts | 343° |
| 2026-04-16 08:00 | 48.67421 | -1.93907 | 7309 ft | 278 kts | 343° |
| 2026-04-16 08:00 | 48.69302 | -1.94521 | 7066 ft | 276 kts | 344° |
| 2026-04-16 08:01 | 48.71173 | -1.95130 | 6828 ft | 274 kts | 344° |
| 2026-04-16 08:01 | 48.73037 | -1.95737 | 6579 ft | 274 kts | 344° |
| 2026-04-16 08:01 | 48.74869 | -1.96335 | 6322 ft | 272 kts | 344° |
| 2026-04-16 08:01 | 48.76712 | -1.96936 | 6065 ft | 271 kts | 344° |
| 2026-04-16 08:02 | 48.78552 | -1.97536 | 5803 ft | 270 kts | 344° |
| 2026-04-16 08:02 | 48.82212 | -1.98733 | 5310 ft | 268 kts | 344° |
| 2026-04-16 08:02 | 48.84031 | -1.99331 | 5213 ft | 267 kts | 344° |
| 2026-04-16 08:03 | 48.85849 | -1.99931 | 5221 ft | 268 kts | 344° |
| 2026-04-16 08:03 | 48.87669 | -2.00531 | 5224 ft | 268 kts | 344° |
| 2026-04-16 08:03 | 48.89463 | -2.01125 | 5224 ft | 267 kts | 344° |
| 2026-04-16 08:03 | 48.91281 | -2.01726 | 5220 ft | 267 kts | 344° |
| 2026-04-16 08:04 | 48.93101 | -2.02326 | 5219 ft | 268 kts | 344° |
| 2026-04-16 08:04 | 48.94907 | -2.02920 | 4902 ft | 264 kts | 344° |
| 2026-04-16 08:04 | 48.96701 | -2.03508 | 4357 ft | 263 kts | 344° |
| 2026-04-16 08:04 | 48.98488 | -2.04093 | 3859 ft | 261 kts | 344° |
| 2026-04-16 08:05 | 49.00260 | -2.04675 | 3347 ft | 260 kts | 344° |
| 2026-04-16 08:05 | 49.02019 | -2.05253 | 3046 ft | 258 kts | 343° |
| 2026-04-16 08:05 | 49.03799 | -2.05633 | 3020 ft | 262 kts | 354° |
| 2026-04-16 08:05 | 49.05606 | -2.05559 | 3023 ft | 264 kts | 359° |
| 2026-04-16 08:06 | 49.07446 | -2.05447 | 3026 ft | 265 kts | 358° |
| 2026-04-16 08:06 | 49.09288 | -2.05341 | 3019 ft | 262 kts | 359° |
| 2026-04-16 08:06 | 49.11032 | -2.05235 | 3014 ft | 240 kts | 358° |
| 2026-04-16 08:06 | 49.12636 | -2.05135 | 3015 ft | 222 kts | 358° |
| 2026-04-16 08:07 | 49.14111 | -2.04821 | 2991 ft | 211 kts | 16° |
| 2026-04-16 08:07 | 49.15396 | -2.03786 | 2809 ft | 208 kts | 25° |
| 2026-04-16 08:07 | 49.16680 | -2.02856 | 2564 ft | 205 kts | 14° |
| 2026-04-16 08:07 | 49.18055 | -2.02558 | 2419 ft | 193 kts | 351° |
| 2026-04-16 08:08 | 49.19297 | -2.03022 | 2366 ft | 176 kts | 327° |
| 2026-04-16 08:08 | 49.20185 | -2.04080 | 2349 ft | 154 kts | 303° |
| 2026-04-16 08:08 | 49.20629 | -2.05460 | 2076 ft | 135 kts | 279° |
| 2026-04-16 08:08 | 49.20794 | -2.06758 | 1909 ft | 116 kts | 276° |
| 2026-04-16 08:09 | 49.20940 | -2.07921 | 1703 ft | 110 kts | 274° |
| 2026-04-16 08:09 | 49.21075 | -2.09092 | 1487 ft | 113 kts | 274° |
| 2026-04-16 08:09 | 49.21213 | -2.10272 | 1348 ft | 113 kts | 274° |
| 2026-04-16 08:09 | 49.21322 | -2.11450 | 1260 ft | 114 kts | 271° |
| 2026-04-16 08:10 | 49.21372 | -2.12662 | 1101 ft | 114 kts | 264° |
| 2026-04-16 08:10 | 49.21288 | -2.13855 | 922 ft | 112 kts | 258° |
| 2026-04-16 08:10 | 49.21174 | -2.15040 | 749 ft | 116 kts | 257° |
| 2026-04-16 08:10 | 49.21066 | -2.16281 | 583 ft | 120 kts | 259° |
| 2026-04-16 08:11 | 49.20963 | -2.17562 | 461 ft | 119 kts | 256° |
| 2026-04-16 08:11 | 49.20863 | -2.18764 | 296 ft | 110 kts | 256° |
| 2026-04-16 08:11 | 49.20785 | -2.19674 | 283 ft | 49 kts | 263° |
| 2026-04-16 08:11 | 49.20771 | -2.19859 | 284 ft | 19 kts | 264° |
| 2026-04-16 08:12 | 49.20742 | -2.20062 | 284 ft | 17 kts | 233° |
| 2026-04-16 08:12 | 49.20628 | -2.20099 | 282 ft | 15 kts | 171° |
| 2026-04-16 08:12 | 49.20545 | -2.20076 | 281 ft | 10 kts | 154° |
| 2026-04-16 08:12 | 49.20518 | -2.19970 | 284 ft | 11 kts | 104° |
| 2026-04-16 08:13 | 49.20457 | -2.19913 | 280 ft | 12 kts | 163° |
| 2026-04-16 08:13 | 49.20436 | -2.19807 | 280 ft | 8 kts | 82° |
| 2026-04-16 08:13 | 49.20468 | -2.19785 | 280 ft | 3 kts | 351° |
| 2026-04-16 08:13 | 49.20490 | -2.19789 | 280 ft | 0 kts | 354° |